Time;durP1;ratioP1;P1;durP2;ratioP2;P2;SDS_P1;SDS_P2;PMS_P1;PMS_P2;Temp;Humidity;BMP_temperature;BMP_pressure;BME280_temperature;BME280_humidity;BME280_pressure;Samples;Min_cycle;Max_cycle;Signal;HPM_P1;HPM_P2
2023/06/25 00:00:05;;;;;;;;;;;;;;;25.20;62.91;99371.81;307274;32;786;-77
2023/06/25 00:00:15;;;;;;;;;;;;;;;25.22;62.97;99377.03;306626;32;1393;-77
2023/06/25 00:00:26;;;;;;;;;;;;;;;25.20;63.09;99374.50;307357;32;4805;-77
2023/06/25 00:00:36;;;;;;;;;;;;;;;25.20;63.09;99377.19;306656;32;3495;-77
2023/06/25 00:00:47;;;;;;;;;;;;;;;25.20;63.10;99377.19;305438;32;1466;-77
2023/06/25 00:00:57;;;;;;;;;;;;;;;25.20;62.86;99371.81;302079;32;2901;-77
2023/06/25 00:01:07;;;;;;;;;;;;;;;25.20;63.11;99378.03;302120;32;3949;-77
2023/06/25 00:01:17;;;;;;;;;;;;;;;25.19;63.19;99375.50;301259;32;1257;-77
2023/06/25 00:01:28;;;;;;;;;;;;;;;25.19;63.15;99380.88;301946;32;5234;-77
2023/06/25 00:01:38;;;;;;;;;;;;;;;25.18;62.89;99373.81;301388;32;5838;-77
2023/06/25 00:01:49;;;;;;;;;;;;;;;25.17;63.30;99372.16;302410;32;770;-77
2023/06/25 00:01:59;;;;;;;;;;;;;;;25.17;63.41;99374.81;298681;32;5758;-77
2023/06/25 00:02:09;;;;;;;;;;;;;;;25.15;63.57;99372.31;298725;32;5825;-76
2023/06/25 00:02:20;;;;;;;;;;;;;;;25.17;63.47;99377.50;297352;33;6140;-76
2023/06/25 00:02:30;;;;;;;;;;;;;;;25.17;63.20;99382.88;299298;33;748;-77
2023/06/25 00:02:40;;;;;;;;;;;;;;;25.16;63.08;99376.66;295911;33;6719;-77
2023/06/25 00:02:50;;;;;;;;;;;;;;;25.17;63.49;99380.19;296105;33;4912;-77
2023/06/25 00:03:00;;;;;;;;;;;;;;;25.17;63.34;99377.50;298233;33;1104;-77
2023/06/25 00:03:11;;;;;;;;;;;;;;;25.15;63.46;99379.50;291777;33;5001;-77
2023/06/25 00:03:22;;;;;;;;;;;;;;;25.15;63.39;99379.50;289354;33;5817;-77
2023/06/25 00:03:32;;;;;;;;;;;;;;;25.14;63.46;99378.66;288330;34;1612;-77
2023/06/25 00:03:43;;;;;;;;;;;;;;;25.14;63.88;99378.66;286169;34;8107;-77
2023/06/25 00:03:53;;;;;;;;;;;;;;;25.14;63.44;99383.19;285377;34;8802;-77
2023/06/25 00:04:03;;;;;;;;;;;;;;;25.12;63.51;99375.34;285678;34;1230;-77
2023/06/25 00:04:13;;;;;;;;;;;;;;;25.13;63.61;99376.16;286007;34;8566;-77
2023/06/25 00:04:26;;;;;;;;;;;;;;;25.14;63.60;99383.19;284221;34;8611;-77
2023/06/25 00:04:37;;;;;;;;;;;;;;;25.13;63.52;99373.47;281809;34;9131;-77
2023/06/25 00:04:48;;;;;;;;;;;;;;;25.14;63.63;99383.19;283349;34;4485;-77
2023/06/25 00:06:27;;;;;;;;;;;;;;;25.07;65.01;99385.69;2503790;27;20349;-77
2023/06/25 00:06:37;;;;;;;;;;;;;;;25.07;64.85;99379.50;354552;27;1154;-77
2023/06/25 00:06:47;;;;;;;;;;;;;;;25.06;65.00;99385.84;353252;28;1213;-77
2023/06/25 00:06:57;;;;;;;;;;;;;;;25.05;65.04;99387.69;352837;28;1206;-79
2023/06/25 00:07:08;;;;;;;;;;;;;;;25.04;65.04;99385.19;351862;28;1236;-77
2023/06/25 00:07:18;;;;;;;;;;;;;;;25.03;65.07;99386.19;350595;28;788;-77
2023/06/25 00:07:28;;;;;;;;;;;;;;;25.03;65.11;99384.34;349142;28;723;-78
2023/06/25 00:07:40;;;;;;;;;;;;;;;25.03;65.37;99383.50;347707;28;1264;-77
2023/06/25 00:07:51;;;;;;;;;;;;;;;25.03;65.08;99386.19;347744;28;822;-77
2023/06/25 00:08:01;;;;;;;;;;;;;;;25.02;65.28;99384.50;347611;28;1404;-76
2023/06/25 00:08:11;;;;;;;;;;;;;;;25.02;65.15;99384.50;350520;28;1318;-78
2023/06/25 00:08:21;;;;;;;;;;;;;;;25.02;65.15;99387.19;349685;28;1737;-78
2023/06/25 00:08:32;;;;;;;;;;;;;;;25.03;65.27;99380.81;353252;28;1353;-77
2023/06/25 00:08:42;;;;;;;;;;;;;;;25.03;65.33;99386.19;351911;28;942;-77
2023/06/25 00:08:52;;;;;;;;;;;;;;;25.03;65.43;99381.66;350357;28;1315;-77
2023/06/25 00:09:02;;;;;;;;;;;;;;;25.04;65.50;99379.81;350675;28;904;-77
2023/06/25 00:09:13;;;;;;;;;;;;;;;25.05;65.38;99381.50;350605;28;781;-77
2023/06/25 00:09:23;;;;;;;;;;;;;;;25.06;65.22;99385.84;350482;28;1231;-77
2023/06/25 00:09:33;;;;;;;;;;;;;;;25.06;65.53;99385.84;350625;28;833;-77
2023/06/25 00:09:53;;;;;;;;;;;;;;;24.99;65.44;99384.81;350332;28;1603;-77
2023/06/25 00:10:03;;;;;;;;;;;;;;;24.94;65.72;99381.75;348873;28;1367;-76
2023/06/25 00:10:13;;;;;;;;;;;;;;;24.92;66.01;99383.75;349102;28;1055;-76
2023/06/25 00:10:24;;;;;;;;;;;;;;;24.87;65.85;99378.88;348742;28;1062;-76
2023/06/25 00:10:34;;;;;;;;;;;;;;;24.82;65.97;99379.34;350051;28;2587;-76
2023/06/25 00:10:44;;;;;;;;;;;;;;;24.80;66.35;99375.97;351869;28;951;-76
2023/06/25 00:10:55;;;;;;;;;;;;;;;24.79;66.24;99379.66;350240;28;1425;-76
2023/06/25 00:11:05;;;;;;;;;;;;;;;24.79;66.14;99384.16;344936;28;1207;-76
2023/06/25 00:11:15;;;;;;;;;;;;;;;24.76;66.32;99379.97;343511;28;1361;-76
2023/06/25 00:11:25;;;;;;;;;;;;;;;24.73;66.54;99374.94;345065;28;848;-76
2023/06/25 00:11:36;;;;;;;;;;;;;;;24.68;66.57;99374.59;344872;28;1304;-76
2023/06/25 00:11:46;;;;;;;;;;;;;;;24.63;66.74;99374.22;348918;28;1406;-76
2023/06/25 00:11:56;;;;;;;;;;;;;;;24.63;66.93;99373.41;347793;28;1210;-76
2023/06/25 00:12:07;;;;;;;;;;;;;;;24.60;67.09;99374.53;348951;28;1241;-76
2023/06/25 00:12:17;;;;;;;;;;;;;;;24.57;67.26;99377.53;347498;28;1235;-76
2023/06/25 00:12:27;;;;;;;;;;;;;;;24.55;66.90;99374.19;343629;28;1269;-76
2023/06/25 00:12:38;;;;;;;;;;;;;;;24.56;67.23;99375.84;345623;28;1196;-76
2023/06/25 00:12:48;;;;;;;;;;;;;;;24.49;67.17;99378.31;346439;28;1010;-76
2023/06/25 00:12:58;;;;;;;;;;;;;;;24.42;67.45;99377.25;348701;28;855;-76
2023/06/25 00:13:08;;;;;;;;;;;;;;;24.38;67.59;99375.06;349848;28;1062;-76
2023/06/25 00:13:19;;;;;;;;;;;;;;;24.32;67.54;99375.69;349020;28;1219;-76
2023/06/25 00:13:29;;;;;;;;;;;;;;;24.29;67.88;99375.97;349014;28;1137;-76
2023/06/25 00:13:39;;;;;;;;;;;;;;;24.29;67.82;99381.34;346287;28;1346;-76
2023/06/25 00:13:49;;;;;;;;;;;;;;;24.24;68.18;99375.59;348806;28;874;-76
2023/06/25 00:14:01;;;;;;;;;;;;;;;24.25;67.91;99375.50;347764;28;879;-76
2023/06/25 00:14:11;;;;;;;;;;;;;;;24.25;67.96;99377.28;345023;28;1399;-76
2023/06/25 00:14:21;;;;;;;;;;;;;;;24.23;68.02;99369.41;346247;28;1210;-76
2023/06/25 00:14:31;;;;;;;;;;;;;;;24.24;68.25;99375.59;345667;28;1339;-76
2023/06/25 00:14:41;;;;;;;;;;;;;;;24.21;67.90;99377.59;346183;28;728;-76
2023/06/25 00:14:52;;;;;;;;;;;;;;;24.20;68.26;99378.59;341091;28;1242;-76
2023/06/25 00:15:02;;;;;;;;;;;;;;;24.20;68.23;99378.59;340054;28;1504;-76
2023/06/25 00:15:13;;;;;;;;;;;;;;;24.20;68.08;99370.56;343530;28;1514;-76
2023/06/25 00:15:24;;;;;;;;;;;;;;;24.21;67.93;99374.09;343474;28;1422;-76
2023/06/25 00:15:34;;;;;;;;;;;;;;;24.21;67.89;99372.25;344059;28;928;-76
2023/06/25 00:15:44;;;;;;;;;;;;;;;24.23;68.16;99381.97;342241;28;1182;-76
2023/06/25 00:15:54;;;;;;;;;;;;;;;24.19;68.06;99368.88;344672;28;1205;-76
2023/06/25 00:16:05;;;;;;;;;;;;;;;24.18;68.02;99372.56;344777;28;1332;-76
2023/06/25 00:16:15;;;;;;;;;;;;;;;24.18;67.91;99369.03;346281;28;1371;-76
2023/06/25 00:16:29;;;;;;;;;;;;;;;24.18;68.02;99379.75;342329;28;723;-76
2023/06/25 00:16:39;;;;;;;;;;;;;;;24.17;68.00;99375.38;344033;28;1939;-76
2023/06/25 00:16:57;;;;;;;;;;;;;;;24.17;67.99;99376.22;340928;28;1756;-76
2023/06/25 00:17:07;;;;;;;;;;;;;;;24.17;67.16;99381.56;341900;28;2094;-76
2023/06/25 00:17:17;;;;;;;;;;;;;;;24.20;67.24;99381.28;340510;29;1996;-76
2023/06/25 00:17:28;;;;;;;;;;;;;;;24.23;66.96;99379.28;340993;29;988;-76
2023/06/25 00:17:38;;;;;;;;;;;;;;;24.26;66.86;99381.69;336882;29;1543;-76
2023/06/25 00:17:49;;;;;;;;;;;;;;;24.30;66.92;99377.66;336331;29;887;-76
2023/06/25 00:17:59;;;;;;;;;;;;;;;24.34;66.49;99376.34;335824;29;810;-76
2023/06/25 00:18:09;;;;;;;;;;;;;;;24.38;66.59;99375.91;332293;29;1256;-76
2023/06/25 00:18:19;;;;;;;;;;;;;;;24.42;66.35;99379.09;332444;29;1860;-76
2023/06/25 00:18:33;;;;;;;;;;;;;;;24.45;66.50;99384.13;334036;29;1162;-76
2023/06/25 00:18:44;;;;;;;;;;;;;;;24.48;66.89;99375.81;333168;29;1237;-76
2023/06/25 00:18:58;;;;;;;;;;;;;;;24.51;66.35;99379.00;331691;29;2181;-76
2023/06/25 00:19:08;;;;;;;;;;;;;;;24.55;66.68;99379.53;331141;29;2241;-76
2023/06/25 00:19:18;;;;;;;;;;;;;;;24.57;66.58;99377.53;330343;29;2659;-76
2023/06/25 00:19:29;;;;;;;;;;;;;;;24.58;66.83;99375.69;332491;29;858;-76
2023/06/25 00:19:41;;;;;;;;;;;;;;;24.60;66.61;99376.38;330591;29;2546;-76
2023/06/25 00:19:51;;;;;;;;;;;;;;;24.62;66.77;99374.38;330168;29;1916;-76
2023/06/25 00:20:01;;;;;;;;;;;;;;;24.62;66.68;99383.25;329206;29;1336;-76
2023/06/25 00:20:12;;;;;;;;;;;;;;;24.63;66.83;99378.75;326633;30;1215;-76
2023/06/25 00:20:24;;;;;;;;;;;;;;;24.63;66.89;99379.59;324597;30;3052;-76
2023/06/25 00:20:34;;;;;;;;;;;;;;;24.63;67.00;99376.91;324520;30;2441;-76
2023/06/25 00:20:46;;;;;;;;;;;;;;;24.64;67.01;99375.91;322163;30;1324;-76
2023/06/25 00:20:56;;;;;;;;;;;;;;;24.64;66.92;99375.91;323348;30;888;-76
2023/06/25 00:21:06;;;;;;;;;;;;;;;24.64;66.83;99386.63;320135;30;3045;-76
2023/06/25 00:21:16;;;;;;;;;;;;;;;24.65;66.74;99382.94;318629;30;3268;-76
2023/06/25 00:21:27;;;;;;;;;;;;;;;24.66;66.91;99378.44;322115;30;1327;-76
2023/06/25 00:21:37;;;;;;;;;;;;;;;24.66;66.85;99381.09;320944;30;3533;-76
2023/06/25 00:21:47;;;;;;;;;;;;;;;24.66;66.81;99379.28;318190;31;3429;-76
2023/06/25 00:21:58;;;;;;;;;;;;;;;24.68;66.73;99387.16;317400;31;1203;-76
2023/06/25 00:22:09;;;;;;;;;;;;;;;24.67;66.65;99380.94;317667;31;2323;-76
2023/06/25 00:22:19;;;;;;;;;;;;;;;24.70;66.93;99388.63;317736;30;2040;-76
2023/06/25 00:22:30;;;;;;;;;;;;;;;24.70;66.77;99385.97;315235;31;1274;-76
2023/06/25 00:22:40;;;;;;;;;;;;;;;24.71;66.61;99382.28;314360;31;3465;-76
2023/06/25 00:22:50;;;;;;;;;;;;;;;24.73;66.89;99384.81;312720;31;4621;-76
2023/06/25 00:23:00;;;;;;;;;;;;;;;24.73;66.75;99382.97;314772;31;3000;-76
2023/06/25 00:23:10;;;;;;;;;;;;;;;24.75;66.74;99386.31;313378;31;4437;-76
2023/06/25 00:23:21;;;;;;;;;;;;;;;24.76;66.54;99384.50;310860;31;4210;-76
2023/06/25 00:23:31;;;;;;;;;;;;;;;24.77;66.72;99386.16;311254;31;4424;-76
2023/06/25 00:23:41;;;;;;;;;;;;;;;24.77;67.02;99386.16;310768;31;1261;-76
2023/06/25 00:23:52;;;;;;;;;;;;;;;24.76;66.75;99388.00;310160;31;5393;-76
2023/06/25 00:24:02;;;;;;;;;;;;;;;24.76;66.96;99381.81;310275;31;4677;-76
2023/06/25 00:24:13;;;;;;;;;;;;;;;24.76;66.98;99379.97;308598;32;1329;-76
2023/06/25 00:24:23;;;;;;;;;;;;;;;24.77;67.06;99389.69;304230;32;3362;-76
2023/06/25 00:24:33;;;;;;;;;;;;;;;24.77;66.97;99386.16;301792;32;3322;-76
2023/06/25 00:24:43;;;;;;;;;;;;;;;24.77;67.07;99389.69;304461;32;960;-76
2023/06/25 00:24:53;;;;;;;;;;;;;;;24.77;66.87;99387.00;299560;32;4446;-76
2023/06/25 00:25:04;;;;;;;;;;;;;;;24.76;66.71;99390.69;299590;32;5373;-76
2023/06/25 00:25:14;;;;;;;;;;;;;;;24.77;66.86;99386.16;303203;32;1918;-76
2023/06/25 00:25:26;;;;;;;;;;;;;;;24.77;66.84;99389.69;301220;32;6096;-76
2023/06/25 00:25:36;;;;;;;;;;;;;;;24.77;66.87;99389.69;301223;32;6213;-76
2023/06/25 00:25:46;;;;;;;;;;;;;;;24.77;66.89;99380.81;301234;32;6403;-76
2023/06/25 00:25:57;;;;;;;;;;;;;;;24.76;66.82;99387.16;300248;32;822;-77
2023/06/25 00:26:07;;;;;;;;;;;;;;;24.75;67.24;99388.16;296313;33;6817;-77
2023/06/25 00:26:17;;;;;;;;;;;;;;;24.74;66.88;99386.47;293514;33;7044;-77
2023/06/25 00:26:27;;;;;;;;;;;;;;;24.74;67.14;99387.31;295125;33;1404;-77
2023/06/25 00:26:45;;;;;;;;;;;;;;;24.72;66.96;99383.97;297523;32;5136;-76
2023/06/25 00:26:55;;;;;;;;;;;;;;;24.70;66.91;99385.97;299880;32;4968;-76
2023/06/25 00:27:06;;;;;;;;;;;;;;;24.68;66.86;99382.63;295975;33;6391;-76
2023/06/25 00:27:16;;;;;;;;;;;;;;;24.68;66.91;99387.97;291659;33;7583;-76
2023/06/25 00:27:26;;;;;;;;;;;;;;;24.69;66.75;99384.31;294364;33;815;-76
2023/06/25 00:27:37;;;;;;;;;;;;;;;24.65;66.89;99388.28;290837;33;8699;-76
2023/06/25 00:27:50;;;;;;;;;;;;;;;24.59;66.98;99380.91;287732;33;8716;-76
2023/06/25 00:28:00;;;;;;;;;;;;;;;24.53;67.38;99385.03;287512;34;919;-76
2023/06/25 00:28:10;;;;;;;;;;;;;;;24.51;67.41;99383.50;284100;34;8612;-76
2023/06/25 00:30:14;;;;;;;;;;;;;;;24.06;69.06;99389.84;2496499;27;19929;-77
2023/06/25 00:30:25;;;;;;;;;;;;;;;24.05;69.08;99390.00;352806;28;1314;-76
2023/06/25 00:30:35;;;;;;;;;;;;;;;24.00;69.06;99387.78;351859;28;1214;-76
2023/06/25 00:30:45;;;;;;;;;;;;;;;23.97;69.19;99382.72;351844;28;1170;-76
2023/06/25 00:30:55;;;;;;;;;;;;;;;23.97;69.12;99382.72;351786;28;1711;-76
2023/06/25 00:31:06;;;;;;;;;;;;;;;23.97;69.08;99385.41;351731;28;1377;-76
2023/06/25 00:31:16;;;;;;;;;;;;;;;23.96;69.16;99386.41;351942;28;894;-76
2023/06/25 00:31:26;;;;;;;;;;;;;;;23.95;69.32;99384.72;350319;28;1340;-76
2023/06/25 00:31:37;;;;;;;;;;;;;;;23.95;69.48;99383.88;350549;28;753;-76
2023/06/25 00:31:47;;;;;;;;;;;;;;;23.97;69.13;99388.09;350519;28;982;-76
2023/06/25 00:31:57;;;;;;;;;;;;;;;23.98;68.66;99383.56;349876;28;3174;-76
2023/06/25 00:32:08;;;;;;;;;;;;;;;23.99;68.85;99379.91;349175;28;3043;-75
2023/06/25 00:32:18;;;;;;;;;;;;;;;23.99;68.97;99380.75;350332;28;4904;-76
2023/06/25 00:32:28;;;;;;;;;;;;;;;24.00;68.53;99382.44;351751;28;1355;-76
2023/06/25 00:32:38;;;;;;;;;;;;;;;23.98;68.29;99387.09;352121;28;1325;-76
2023/06/25 00:32:54;;;;;;;;;;;;;;;23.96;68.36;99386.41;350098;28;1214;-76
2023/06/25 00:33:04;;;;;;;;;;;;;;;23.94;68.06;99383.03;349145;28;851;-76
2023/06/25 00:33:14;;;;;;;;;;;;;;;23.93;68.32;99386.72;349049;28;1352;-76
2023/06/25 00:33:25;;;;;;;;;;;;;;;23.95;68.40;99381.22;351797;28;1326;-76
2023/06/25 00:33:35;;;;;;;;;;;;;;;23.93;68.21;99381.34;349421;28;1234;-76
2023/06/25 00:33:49;;;;;;;;;;;;;;;23.96;68.03;99386.41;350463;28;1199;-76
2023/06/25 00:33:59;;;;;;;;;;;;;;;23.99;68.12;99377.22;350505;28;966;-76
2023/06/25 00:34:10;;;;;;;;;;;;;;;24.03;67.97;99375.94;350094;28;971;-76
2023/06/25 00:34:20;;;;;;;;;;;;;;;24.06;67.93;99379.13;346688;28;1410;-76
2023/06/25 00:34:30;;;;;;;;;;;;;;;24.10;67.76;99387.69;345019;28;1220;-76
2023/06/25 00:34:41;;;;;;;;;;;;;;;24.12;67.43;99381.19;347327;28;1327;-76
2023/06/25 00:34:57;;;;;;;;;;;;;;;24.17;67.77;99383.41;346183;28;944;-76
2023/06/25 00:35:10;;;;;;;;;;;;;;;24.22;67.43;99381.13;346495;28;852;-76
2023/06/25 00:35:24;;;;;;;;;;;;;;;24.26;67.00;99381.69;345013;28;1161;-76
2023/06/25 00:35:59;;;;;;;;;;;;;;;24.29;67.16;99381.34;342124;28;1313;-76
2023/06/25 00:36:10;;;;;;;;;;;;;;;24.38;67.53;99380.41;342097;28;1225;-76
2023/06/25 00:36:20;;;;;;;;;;;;;;;24.40;67.42;99381.09;345690;28;1292;-76
2023/06/25 00:36:36;;;;;;;;;;;;;;;24.42;67.17;99382.63;345033;28;889;-76
2023/06/25 00:36:51;;;;;;;;;;;;;;;24.46;67.52;99375.13;345057;28;849;-76
2023/06/25 00:37:02;;;;;;;;;;;;;;;24.46;67.71;99373.28;340931;28;1173;-76
2023/06/25 00:37:18;;;;;;;;;;;;;;;24.49;67.66;99377.47;342422;28;925;-76
2023/06/25 00:37:28;;;;;;;;;;;;;;;24.50;67.49;99377.31;339643;29;1378;-76
2023/06/25 00:37:41;;;;;;;;;;;;;;;24.50;67.73;99373.81;338410;29;1344;-76
2023/06/25 00:37:56;;;;;;;;;;;;;;;24.53;67.70;99378.84;339309;28;1358;-76
2023/06/25 00:38:07;;;;;;;;;;;;;;;24.53;67.63;99378.84;339551;28;1390;-76
2023/06/25 00:38:17;;;;;;;;;;;;;;;24.53;67.54;99377.00;339544;29;1277;-76
2023/06/25 00:38:27;;;;;;;;;;;;;;;24.56;67.77;99380.38;338389;29;940;-76
2023/06/25 00:38:38;;;;;;;;;;;;;;;24.54;67.47;99376.00;336063;29;1300;-76
2023/06/25 00:38:48;;;;;;;;;;;;;;;24.55;67.68;99376.84;335768;29;1563;-76
2023/06/25 00:38:59;;;;;;;;;;;;;;;24.54;67.69;99380.53;337022;29;943;-76
2023/06/25 00:39:09;;;;;;;;;;;;;;;24.56;67.51;99375.03;337887;29;1250;-76
2023/06/25 00:39:20;;;;;;;;;;;;;;;24.56;67.56;99373.19;336994;29;1347;-76
2023/06/25 00:39:31;;;;;;;;;;;;;;;24.56;67.67;99381.22;334397;29;1517;-76
2023/06/25 00:39:41;;;;;;;;;;;;;;;24.56;67.71;99378.53;334445;29;817;-76
2023/06/25 00:39:51;;;;;;;;;;;;;;;24.55;67.68;99374.19;334349;29;1180;-76
2023/06/25 00:40:02;;;;;;;;;;;;;;;24.55;67.24;99376.84;335750;29;1385;-76
2023/06/25 00:40:13;;;;;;;;;;;;;;;24.57;67.36;99371.34;334537;29;835;-78
2023/06/25 00:40:23;;;;;;;;;;;;;;;24.56;67.46;99373.19;331301;29;1903;-78
2023/06/25 00:40:33;;;;;;;;;;;;;;;24.58;67.49;99373.03;330685;29;1912;-78
2023/06/25 00:40:43;;;;;;;;;;;;;;;24.58;67.37;99375.69;333264;29;768;-77
2023/06/25 00:40:54;;;;;;;;;;;;;;;24.59;67.35;99370.19;330837;29;2063;-77
2023/06/25 00:41:08;;;;;;;;;;;;;;;24.58;67.56;99371.19;330892;29;2217;-77
2023/06/25 00:41:19;;;;;;;;;;;;;;;24.60;67.60;99377.22;331838;29;3050;-77
2023/06/25 00:41:29;;;;;;;;;;;;;;;24.58;67.10;99381.88;329738;29;4342;-77
2023/06/25 00:41:39;;;;;;;;;;;;;;;24.53;66.56;99376.16;329194;29;5041;-77
2023/06/25 00:41:50;;;;;;;;;;;;;;;24.48;65.79;99378.47;330468;29;2879;-77
2023/06/25 00:42:00;;;;;;;;;;;;;;;24.47;65.85;99376.78;330647;29;1432;-77
2023/06/25 00:42:10;;;;;;;;;;;;;;;24.46;66.32;99372.44;328820;30;1602;-77
2023/06/25 00:42:21;;;;;;;;;;;;;;;24.46;66.41;99383.97;325802;30;2162;-77
2023/06/25 00:42:41;;;;;;;;;;;;;;;24.48;66.29;99378.47;326869;29;2493;-77
2023/06/25 00:42:56;;;;;;;;;;;;;;;24.48;65.66;99381.16;328908;29;2369;-77
2023/06/25 00:43:06;;;;;;;;;;;;;;;24.48;65.21;99376.63;330222;29;2746;-77
2023/06/25 00:43:20;;;;;;;;;;;;;;;24.48;65.14;99383.81;329445;30;2650;-77
2023/06/25 00:43:31;;;;;;;;;;;;;;;24.49;65.13;99382.84;324617;30;833;-77
2023/06/25 00:43:41;;;;;;;;;;;;;;;24.48;65.02;99376.63;326711;30;1948;-77
2023/06/25 00:43:51;;;;;;;;;;;;;;;24.49;64.50;99388.19;327354;30;1264;-77
2023/06/25 00:44:04;;;;;;;;;;;;;;;24.49;64.23;99385.50;328322;30;807;-77
2023/06/25 00:44:15;;;;;;;;;;;;;;;24.49;64.41;99378.31;325940;30;943;-77
2023/06/25 00:44:28;;;;;;;;;;;;;;;24.48;64.13;99387.34;322733;30;2196;-77
2023/06/25 00:44:40;;;;;;;;;;;;;;;24.47;64.35;99376.78;319283;30;2839;-77
2023/06/25 00:44:50;;;;;;;;;;;;;;;24.46;64.11;99378.63;318496;30;3379;-77
2023/06/25 00:45:00;;;;;;;;;;;;;;;24.46;63.93;99388.50;322339;30;762;-77
2023/06/25 00:45:11;;;;;;;;;;;;;;;24.45;64.04;99382.31;320339;30;3194;-77
2023/06/25 00:45:24;;;;;;;;;;;;;;;24.43;63.74;99384.28;320594;30;3193;-77
2023/06/25 00:45:34;;;;;;;;;;;;;;;24.41;63.65;99385.44;322031;30;3178;-77
2023/06/25 00:45:45;;;;;;;;;;;;;;;24.38;63.90;99383.09;319888;30;881;-78
2023/06/25 00:45:55;;;;;;;;;;;;;;;24.35;63.60;99389.59;320494;30;2476;-78
2023/06/25 00:46:05;;;;;;;;;;;;;;;24.34;63.96;99384.38;318081;31;2199;-77
2023/06/25 00:46:15;;;;;;;;;;;;;;;24.33;64.00;99383.56;316645;31;1404;-77
2023/06/25 00:46:26;;;;;;;;;;;;;;;24.32;63.89;99381.03;315618;30;2736;-77
2023/06/25 00:46:36;;;;;;;;;;;;;;;24.29;63.72;99384.00;317072;30;3042;-77
2023/06/25 00:46:46;;;;;;;;;;;;;;;24.24;63.99;99378.28;318749;31;891;-77
2023/06/25 00:46:59;;;;;;;;;;;;;;;24.22;64.30;99381.13;316763;31;3878;-77
2023/06/25 00:47:13;;;;;;;;;;;;;;;24.20;64.22;99383.94;311437;31;4949;-77
2023/06/25 00:47:23;;;;;;;;;;;;;;;24.21;64.25;99380.28;312129;31;4965;-77
2023/06/25 00:47:33;;;;;;;;;;;;;;;24.21;64.20;99390.97;309850;31;4335;-77
2023/06/25 00:47:45;;;;;;;;;;;;;;;24.21;64.11;99385.63;307577;32;1499;-77
2023/06/25 00:47:55;;;;;;;;;;;;;;;24.19;64.42;99378.75;306199;31;4603;-78
2023/06/25 00:48:05;;;;;;;;;;;;;;;24.19;64.22;99376.06;307174;31;3385;-78
2023/06/25 00:48:16;;;;;;;;;;;;;;;24.18;64.12;99380.59;303899;32;1223;-77
2023/06/25 00:48:26;;;;;;;;;;;;;;;24.19;64.24;99382.25;307808;32;4019;-77
2023/06/25 00:48:36;;;;;;;;;;;;;;;24.20;64.12;99383.94;306888;32;3963;-77
2023/06/25 00:48:47;;;;;;;;;;;;;;;24.20;64.51;99377.75;304362;32;1348;-77
2023/06/25 00:49:01;;;;;;;;;;;;;;;24.21;64.46;99382.09;299214;33;879;-77
2023/06/25 00:49:13;;;;;;;;;;;;;;;24.24;63.90;99386.31;294140;33;6260;-78
2023/06/25 00:49:23;;;;;;;;;;;;;;;24.25;64.05;99383.50;295970;33;6624;-78
2023/06/25 00:49:34;;;;;;;;;;;;;;;24.28;64.12;99385.00;296422;32;6558;-78
2023/06/25 00:49:44;;;;;;;;;;;;;;;24.29;64.37;99382.19;296167;33;1212;-78
2023/06/25 00:49:55;;;;;;;;;;;;;;;24.30;63.85;99383.00;295288;33;6086;-78
2023/06/25 00:50:05;;;;;;;;;;;;;;;24.26;63.75;99387.84;294268;33;6330;-78
2023/06/25 00:50:15;;;;;;;;;;;;;;;24.25;64.16;99385.31;295221;33;888;-78
2023/06/25 00:50:25;;;;;;;;;;;;;;;24.24;63.65;99380.97;294143;33;5058;-78
2023/06/25 00:50:36;;;;;;;;;;;;;;;24.24;63.78;99387.16;292566;33;5149;-78
2023/06/25 00:50:46;;;;;;;;;;;;;;;24.24;63.75;99384.47;292976;33;3071;-77
2023/06/25 00:51:01;;;;;;;;;;;;;;;24.24;63.71;99388.97;290100;33;6158;-77
2023/06/25 00:51:17;;;;;;;;;;;;;;;24.25;63.75;99380.84;292105;33;7310;-77
2023/06/25 00:51:27;;;;;;;;;;;;;;;24.28;63.91;99387.69;291321;33;1225;-77
2023/06/25 00:51:37;;;;;;;;;;;;;;;24.29;63.38;99384.00;291405;33;8790;-77
2023/06/25 00:51:48;;;;;;;;;;;;;;;24.29;63.50;99381.34;290302;33;10184;-77
2023/06/25 00:51:58;;;;;;;;;;;;;;;24.27;63.10;99378.81;286523;34;1209;-77
2023/06/25 00:52:11;;;;;;;;;;;;;;;24.23;63.28;99387.31;284980;34;8387;-77
2023/06/25 00:52:22;;;;;;;;;;;;;;;24.17;63.54;99386.09;286019;34;8874;-77
2023/06/25 00:54:41;;;;;;;;;;;;;;;24.23;63.64;99382.78;2502972;27;19937;-76
2023/06/25 00:54:51;;;;;;;;;;;;;;;24.25;63.67;99388.00;354750;27;894;-76
2023/06/25 00:55:02;;;;;;;;;;;;;;;24.26;63.70;99385.16;353235;28;1480;-76
2023/06/25 00:55:12;;;;;;;;;;;;;;;24.28;63.52;99385.84;351987;28;1312;-76
2023/06/25 00:55:22;;;;;;;;;;;;;;;24.30;63.21;99385.69;350499;28;1176;-76
2023/06/25 00:55:32;;;;;;;;;;;;;;;24.28;63.47;99383.16;350376;28;1628;-76
2023/06/25 00:55:43;;;;;;;;;;;;;;;24.26;63.62;99390.50;350397;28;1481;-76
2023/06/25 00:55:53;;;;;;;;;;;;;;;24.27;63.69;99389.50;347677;28;1107;-76
2023/06/25 00:56:03;;;;;;;;;;;;;;;24.28;63.45;99385.84;346235;28;1183;-76
2023/06/25 00:56:15;;;;;;;;;;;;;;;24.30;63.45;99383.00;349057;28;1401;-76
2023/06/25 00:56:29;;;;;;;;;;;;;;;24.32;63.43;99394.41;347066;28;1459;-76
2023/06/25 00:56:39;;;;;;;;;;;;;;;24.33;63.27;99388.06;348864;28;930;-76
2023/06/25 00:56:49;;;;;;;;;;;;;;;24.34;63.49;99389.75;347653;28;1298;-76
2023/06/25 00:57:03;;;;;;;;;;;;;;;24.36;63.21;99387.75;349078;28;1120;-76
2023/06/25 00:57:15;;;;;;;;;;;;;;;24.37;63.37;99389.44;346525;28;1575;-76
2023/06/25 00:57:27;;;;;;;;;;;;;;;24.37;63.18;99389.44;347653;28;1244;-76
2023/06/25 00:57:37;;;;;;;;;;;;;;;24.35;63.05;99388.75;346288;28;1431;-76
2023/06/25 00:57:47;;;;;;;;;;;;;;;24.34;63.31;99382.56;346281;28;1443;-76
2023/06/25 00:58:00;;;;;;;;;;;;;;;24.33;62.93;99390.72;343613;28;1182;-76
2023/06/25 00:58:10;;;;;;;;;;;;;;;24.31;63.10;99387.38;344994;28;1378;-76
2023/06/25 00:58:20;;;;;;;;;;;;;;;24.26;63.33;99390.50;347416;28;1377;-76
2023/06/25 00:58:32;;;;;;;;;;;;;;;24.26;63.49;99387.84;350247;28;1378;-76
2023/06/25 00:58:43;;;;;;;;;;;;;;;24.24;63.62;99389.81;349034;28;1346;-76
2023/06/25 00:59:00;;;;;;;;;;;;;;;24.21;63.39;99382.94;349493;28;1442;-76
2023/06/25 00:59:10;;;;;;;;;;;;;;;24.18;63.54;99385.94;349257;28;888;-76
2023/06/25 00:59:21;;;;;;;;;;;;;;;24.12;63.78;99388.38;349054;28;1207;-76
2023/06/25 00:59:32;;;;;;;;;;;;;;;24.12;63.71;99385.72;350583;28;828;-76
2023/06/25 00:59:43;;;;;;;;;;;;;;;24.13;63.84;99388.22;350512;28;993;-76
2023/06/25 00:59:53;;;;;;;;;;;;;;;24.16;63.91;99387.91;348956;28;1374;-76
2023/06/25 01:00:05;;;;;;;;;;;;;;;24.18;63.81;99391.28;348992;28;847;-76
2023/06/25 01:00:16;;;;;;;;;;;;;;;24.19;63.95;99389.44;350348;28;1637;-76
2023/06/25 01:00:27;;;;;;;;;;;;;;;24.20;63.87;99383.94;347437;28;1371;-76
2023/06/25 01:00:39;;;;;;;;;;;;;;;24.16;63.90;99387.91;345023;28;1332;-76
2023/06/25 01:00:50;;;;;;;;;;;;;;;24.18;63.97;99385.09;344852;28;1013;-76
2023/06/25 01:01:00;;;;;;;;;;;;;;;24.18;64.04;99388.59;344836;28;1400;-76
2023/06/25 01:01:17;;;;;;;;;;;;;;;24.20;64.03;99389.28;344920;28;1228;-76
2023/06/25 01:01:36;;;;;;;;;;;;;;;24.21;63.85;99390.13;343690;28;1122;-76
2023/06/25 01:01:49;;;;;;;;;;;;;;;24.18;63.89;99387.75;343696;28;814;-76
2023/06/25 01:02:01;;;;;;;;;;;;;;;24.14;64.13;99384.56;342249;28;1249;-77
2023/06/25 01:02:13;;;;;;;;;;;;;;;24.12;64.00;99386.56;340845;29;1532;-77
2023/06/25 01:02:34;;;;;;;;;;;;;;;24.09;64.07;99384.19;342232;28;811;-76
2023/06/25 01:03:04;;;;;;;;;;;;;;;24.06;64.44;99384.50;338368;29;857;-76
2023/06/25 01:03:26;;;;;;;;;;;;;;;24.00;64.39;99386.94;339488;29;1208;-76
2023/06/25 01:03:40;;;;;;;;;;;;;;;23.95;64.48;99383.88;335241;29;1282;-76
2023/06/25 01:03:54;;;;;;;;;;;;;;;23.92;64.60;99385.03;335709;29;1334;-76
2023/06/25 01:04:06;;;;;;;;;;;;;;;23.93;65.04;99385.88;336377;29;935;-76
2023/06/25 01:04:19;;;;;;;;;;;;;;;23.93;64.59;99384.03;333225;29;1001;-76
2023/06/25 01:04:33;;;;;;;;;;;;;;;23.91;64.99;99383.34;334473;29;902;-76
2023/06/25 01:04:46;;;;;;;;;;;;;;;23.89;64.72;99377.31;331896;29;1453;-76
2023/06/25 01:05:15;;;;;;;;;;;;;;;23.85;65.12;99373.25;329790;29;1386;-76
2023/06/25 01:05:26;;;;;;;;;;;;;;;23.80;65.02;99386.28;329398;30;1678;-76
2023/06/25 01:05:39;;;;;;;;;;;;;;;23.79;65.40;99387.25;329594;29;1941;-76
2023/06/25 01:05:57;;;;;;;;;;;;;;;23.80;65.02;99388.94;328514;29;1601;-76
2023/06/25 01:06:20;;;;;;;;;;;;;;;23.79;65.34;99380.09;328233;30;881;-76